Skip Navigation Links Skip Navigation Links

Current Weather

College Park, Md.

For information only: do not use for flight planning or navigation.
Latest weather
Observation time Wednesday, December 2, 2020 10:35 PM EST
Local time Wednesday, December 2, 2020 11:00 PM EST
Flight conditions Visual Meteorological Conditions
Winds
Wind speed calm
Visibility 10 mi.
Sky condition
Ceiling unlimited
Sky clear
Temperature 38°F
Dewpoint 15°F
Altimeter 30.24 in.Hg
Derived measurements
Relative humidity 38%
Wind chill 38°F
Density altitude -1660 ft.
Remarks
Fully automated report.
Automated weather observing station without precipitation discriminator.
METAR KCGS 030335Z AUTO 00000KT 10SM CLR 04/M09 A3024 RMK AO1 T00351094

Settings

Location code

InnerDrive.Weather 4.0.6770.0 Release CLR 4.0.30319.42000
Copyright ©2018 Inner Drive Technology. All rights reserved. Portions Copyright ©1986-2018 David Braverman.

Find weather

Site navigation


Skip Navigation Links

Place info

Page info

PayPal - The safer, easier way to pay online!

Return home.

Copyright ©2020 Inner Drive Technology. Purveyors of fine, hand-crafted computer software. Page printed 2020-12-03T04:00:16 UTC.